CEB997 PGUM-RPMD
Flight info
| Callsign | CEB997 |
|---|---|
| Flight time | N/A |
| Altitude | 38000 |
| Route | UNZ A450 PIGFA DCT 10N140E 08N138E DCT COTTA DCT AIBIE DCT OLBIE DCT NIBAT |
| Aircraft | A20N/M-SDE2E3FGHIRWXY/LB1 |
Departure
| Time | 2026-04-18 04:46 |
|---|---|
| Airport | Antonio B. Won Pat International Airport (PGUM) |
Arrival
| Time | N/A |
|---|---|
| Airport | Francisco Bangoy International Airport (RPMD) |
| Time | Latitude | Longitude | Altitude | Speed | Heading |
|---|---|---|---|---|---|
| 2026-04-18 04:46 | 13.43893 | 144.70514 | 3493 ft | 245 kts | 240° |
| 2026-04-18 04:46 | 13.42992 | 144.69032 | 4319 ft | 250 kts | 240° |
| 2026-04-18 04:46 | 13.42073 | 144.67493 | 5212 ft | 252 kts | 240° |
| 2026-04-18 04:47 | 13.41154 | 144.65939 | 6209 ft | 255 kts | 241° |
| 2026-04-18 04:47 | 13.40233 | 144.64366 | 7112 ft | 259 kts | 241° |
| 2026-04-18 04:47 | 13.39296 | 144.62757 | 7976 ft | 265 kts | 240° |
| 2026-04-18 04:47 | 13.38347 | 144.61128 | 8872 ft | 268 kts | 240° |
| 2026-04-18 04:48 | 13.37380 | 144.59469 | 9747 ft | 273 kts | 240° |
| 2026-04-18 04:48 | 13.36392 | 144.57776 | 10403 ft | 284 kts | 240° |
| 2026-04-18 04:48 | 13.35338 | 144.55964 | 10693 ft | 308 kts | 240° |
| 2026-04-18 04:48 | 13.34198 | 144.54007 | 11002 ft | 327 kts | 240° |
| 2026-04-18 04:49 | 13.33017 | 144.51986 | 11717 ft | 332 kts | 240° |
| 2026-04-18 04:49 | 13.31818 | 144.49935 | 12471 ft | 336 kts | 240° |
| 2026-04-18 04:49 | 13.30608 | 144.47865 | 13210 ft | 341 kts | 240° |
| 2026-04-18 04:49 | 13.29377 | 144.45760 | 13887 ft | 346 kts | 240° |
| 2026-04-18 04:50 | 13.28143 | 144.43650 | 14741 ft | 335 kts | 240° |
| 2026-04-18 04:50 | 13.26995 | 144.41691 | 15490 ft | 312 kts | 240° |
| 2026-04-18 04:50 | 13.25846 | 144.39724 | 15614 ft | 331 kts | 240° |
| 2026-04-18 04:50 | 13.24631 | 144.37642 | 15788 ft | 350 kts | 240° |
| 2026-04-18 04:51 | 13.23359 | 144.35467 | 16194 ft | 359 kts | 240° |
| 2026-04-18 04:51 | 13.22073 | 144.33267 | 16845 ft | 361 kts | 239° |
| 2026-04-18 04:51 | 13.20774 | 144.31049 | 17464 ft | 364 kts | 239° |
| 2026-04-18 04:51 | 13.19464 | 144.28811 | 18052 ft | 368 kts | 239° |
| 2026-04-18 04:52 | 13.18139 | 144.26548 | 18545 ft | 371 kts | 239° |
| 2026-04-18 04:52 | 13.16801 | 144.24263 | 19039 ft | 375 kts | 239° |
| 2026-04-18 04:52 | 13.15450 | 144.21958 | 19509 ft | 379 kts | 239° |
| 2026-04-18 04:52 | 13.14090 | 144.19636 | 20015 ft | 382 kts | 239° |
| 2026-04-18 04:53 | 13.12713 | 144.17287 | 20483 ft | 386 kts | 239° |
| 2026-04-18 04:53 | 13.11325 | 144.14919 | 20975 ft | 389 kts | 240° |
| 2026-04-18 04:53 | 13.09925 | 144.12532 | 21439 ft | 393 kts | 240° |
| 2026-04-18 04:53 | 13.08510 | 144.10119 | 21901 ft | 396 kts | 240° |
| 2026-04-18 04:54 | 13.07082 | 144.07687 | 22379 ft | 400 kts | 240° |
| 2026-04-18 04:54 | 13.05640 | 144.05230 | 22841 ft | 403 kts | 240° |
| 2026-04-18 04:54 | 13.04191 | 144.02763 | 23302 ft | 407 kts | 240° |
| 2026-04-18 04:54 | 13.02726 | 144.00269 | 23704 ft | 409 kts | 240° |
| 2026-04-18 04:55 | 13.01252 | 143.97758 | 24146 ft | 410 kts | 239° |
| 2026-04-18 04:55 | 12.99777 | 143.95247 | 24551 ft | 413 kts | 239° |
| 2026-04-18 04:55 | 12.98293 | 143.92723 | 24927 ft | 415 kts | 239° |
| 2026-04-18 04:56 | 12.95296 | 143.87625 | 25721 ft | 419 kts | 239° |
| 2026-04-18 04:56 | 12.93793 | 143.85069 | 26102 ft | 421 kts | 239° |
| 2026-04-18 04:56 | 12.92276 | 143.82490 | 26446 ft | 423 kts | 239° |
| 2026-04-18 04:56 | 12.90753 | 143.79901 | 26802 ft | 425 kts | 239° |
| 2026-04-18 04:57 | 12.89221 | 143.77299 | 27153 ft | 427 kts | 239° |
| 2026-04-18 04:57 | 12.87684 | 143.74689 | 27495 ft | 429 kts | 239° |
| 2026-04-18 04:57 | 12.86138 | 143.72064 | 27830 ft | 431 kts | 239° |
| 2026-04-18 04:57 | 12.84584 | 143.69427 | 28147 ft | 433 kts | 239° |
| 2026-04-18 04:58 | 12.83040 | 143.66807 | 28448 ft | 435 kts | 239° |
| 2026-04-18 04:58 | 12.81456 | 143.64118 | 28772 ft | 437 kts | 239° |
| 2026-04-18 04:58 | 12.79879 | 143.61445 | 29074 ft | 439 kts | 238° |
| 2026-04-18 04:58 | 12.78314 | 143.58791 | 29377 ft | 441 kts | 238° |
| 2026-04-18 04:59 | 12.76725 | 143.56098 | 29677 ft | 443 kts | 238° |
| 2026-04-18 04:59 | 12.75130 | 143.53395 | 29976 ft | 444 kts | 238° |
| 2026-04-18 04:59 | 12.73531 | 143.50685 | 30223 ft | 446 kts | 238° |
| 2026-04-18 04:59 | 12.71918 | 143.47954 | 30478 ft | 448 kts | 238° |
| 2026-04-18 05:00 | 12.70303 | 143.45220 | 30732 ft | 450 kts | 238° |
| 2026-04-18 05:00 | 12.68682 | 143.42477 | 31006 ft | 451 kts | 238° |
| 2026-04-18 05:00 | 12.67061 | 143.39734 | 31345 ft | 451 kts | 238° |
| 2026-04-18 05:00 | 12.65438 | 143.36989 | 31709 ft | 450 kts | 238° |
| 2026-04-18 05:01 | 12.63819 | 143.34251 | 32057 ft | 449 kts | 238° |
| 2026-04-18 05:01 | 12.62202 | 143.31517 | 32397 ft | 449 kts | 238° |
| 2026-04-18 05:01 | 12.60585 | 143.28785 | 32741 ft | 448 kts | 238° |
| 2026-04-18 05:01 | 12.58979 | 143.26071 | 33096 ft | 447 kts | 238° |
| 2026-04-18 05:02 | 12.57364 | 143.23353 | 33436 ft | 446 kts | 238° |
| 2026-04-18 05:02 | 12.55749 | 143.20644 | 33759 ft | 445 kts | 238° |
| 2026-04-18 05:02 | 12.54136 | 143.17939 | 34053 ft | 444 kts | 238° |
| 2026-04-18 05:02 | 12.52524 | 143.15235 | 34328 ft | 444 kts | 238° |
| 2026-04-18 05:03 | 12.50917 | 143.12541 | 34588 ft | 443 kts | 238° |
| 2026-04-18 05:03 | 12.49312 | 143.09848 | 34844 ft | 443 kts | 238° |
| 2026-04-18 05:03 | 12.47710 | 143.07160 | 35095 ft | 443 kts | 238° |
| 2026-04-18 05:03 | 12.46125 | 143.04503 | 35343 ft | 443 kts | 237° |
| 2026-04-18 05:04 | 12.44523 | 143.01818 | 35601 ft | 442 kts | 237° |
| 2026-04-18 05:04 | 12.42922 | 142.99135 | 35865 ft | 442 kts | 237° |
| 2026-04-18 05:04 | 12.41319 | 142.96450 | 36123 ft | 442 kts | 237° |
| 2026-04-18 05:04 | 12.39720 | 142.93771 | 36370 ft | 442 kts | 237° |
| 2026-04-18 05:05 | 12.38119 | 142.91091 | 36634 ft | 441 kts | 237° |
| 2026-04-18 05:05 | 12.36520 | 142.88414 | 36882 ft | 441 kts | 237° |
| 2026-04-18 05:05 | 12.34921 | 142.85738 | 37119 ft | 441 kts | 237° |
| 2026-04-18 05:05 | 12.33321 | 142.83063 | 37346 ft | 441 kts | 237° |
| 2026-04-18 05:06 | 12.31722 | 142.80388 | 37576 ft | 441 kts | 237° |
| 2026-04-18 05:06 | 12.30124 | 142.77717 | 37801 ft | 440 kts | 237° |
| 2026-04-18 05:06 | 12.26928 | 142.72377 | 37828 ft | 439 kts | 237° |
| 2026-04-18 05:07 | 12.23525 | 142.67156 | 37828 ft | 438 kts | 230° |
| 2026-04-18 05:07 | 12.19517 | 142.62482 | 37829 ft | 437 kts | 227° |
| 2026-04-18 05:08 | 12.15454 | 142.57851 | 37826 ft | 438 kts | 227° |
| 2026-04-18 05:08 | 12.11392 | 142.53215 | 37830 ft | 438 kts | 227° |
| 2026-04-18 05:09 | 12.07330 | 142.48587 | 37830 ft | 438 kts | 227° |
| 2026-04-18 05:09 | 12.03284 | 142.43980 | 37825 ft | 438 kts | 227° |
| 2026-04-18 05:10 | 11.99216 | 142.39350 | 37825 ft | 438 kts | 227° |
| 2026-04-18 05:10 | 11.95144 | 142.34719 | 37825 ft | 438 kts | 227° |
| 2026-04-18 05:11 | 11.91071 | 142.30089 | 37826 ft | 438 kts | 227° |
| 2026-04-18 05:11 | 11.86992 | 142.25453 | 37825 ft | 440 kts | 227° |
| 2026-04-18 05:12 | 11.82909 | 142.20814 | 37829 ft | 440 kts | 227° |
| 2026-04-18 05:12 | 11.78812 | 142.16163 | 37828 ft | 440 kts | 227° |
| 2026-04-18 05:13 | 11.74716 | 142.11514 | 37829 ft | 440 kts | 227° |
| 2026-04-18 05:13 | 11.70618 | 142.06865 | 37829 ft | 441 kts | 227° |
| 2026-04-18 05:14 | 11.66517 | 142.02216 | 37829 ft | 441 kts | 227° |
| 2026-04-18 05:14 | 11.62411 | 141.97563 | 37827 ft | 442 kts | 227° |
| 2026-04-18 05:15 | 11.58319 | 141.92929 | 37827 ft | 442 kts | 227° |
| 2026-04-18 05:15 | 11.54199 | 141.88264 | 37827 ft | 442 kts | 227° |
| 2026-04-18 05:16 | 11.50092 | 141.83616 | 37831 ft | 441 kts | 227° |
| 2026-04-18 05:16 | 11.45975 | 141.78958 | 37830 ft | 443 kts | 227° |
| 2026-04-18 05:17 | 11.41858 | 141.74304 | 37828 ft | 443 kts | 227° |
| 2026-04-18 05:17 | 11.37715 | 141.69622 | 37828 ft | 445 kts | 227° |
| 2026-04-18 05:18 | 11.33568 | 141.64939 | 37825 ft | 445 kts | 227° |
| 2026-04-18 05:18 | 11.29410 | 141.60243 | 37829 ft | 447 kts | 227° |
| 2026-04-18 05:19 | 11.25249 | 141.55547 | 37830 ft | 447 kts | 227° |
| 2026-04-18 05:19 | 11.21069 | 141.50833 | 37826 ft | 449 kts | 227° |
| 2026-04-18 05:20 | 11.16889 | 141.46119 | 37830 ft | 448 kts | 227° |
| 2026-04-18 05:20 | 11.12705 | 141.41404 | 37828 ft | 449 kts | 227° |
| 2026-04-18 05:21 | 11.08696 | 141.36529 | 37830 ft | 449 kts | 231° |
| 2026-04-18 05:21 | 11.04819 | 141.31520 | 37832 ft | 454 kts | 230° |
| 2026-04-18 05:22 | 11.00841 | 141.26460 | 37826 ft | 458 kts | 230° |
| 2026-04-18 05:22 | 10.96844 | 141.21416 | 37830 ft | 457 kts | 230° |
| 2026-04-18 05:23 | 10.92845 | 141.16378 | 37837 ft | 457 kts | 229° |
| 2026-04-18 05:23 | 10.88871 | 141.11371 | 37828 ft | 457 kts | 229° |
| 2026-04-18 05:24 | 10.84874 | 141.06338 | 37834 ft | 457 kts | 229° |
| 2026-04-18 05:24 | 10.80867 | 141.01295 | 37834 ft | 457 kts | 229° |
| 2026-04-18 05:25 | 10.76862 | 140.96256 | 37834 ft | 458 kts | 229° |
| 2026-04-18 05:25 | 10.72857 | 140.91220 | 37833 ft | 458 kts | 229° |
| 2026-04-18 05:26 | 10.68853 | 140.86188 | 37838 ft | 458 kts | 229° |
| 2026-04-18 05:26 | 10.64850 | 140.81159 | 37838 ft | 458 kts | 229° |
| 2026-04-18 05:27 | 10.60847 | 140.76132 | 37835 ft | 458 kts | 229° |
| 2026-04-18 05:27 | 10.56836 | 140.71098 | 37835 ft | 458 kts | 229° |
| 2026-04-18 05:28 | 10.53482 | 140.66891 | 37839 ft | 458 kts | 229° |
| 2026-04-18 05:28 | 10.49504 | 140.61901 | 37838 ft | 458 kts | 229° |
| 2026-04-18 05:29 | 10.46145 | 140.57691 | 37834 ft | 457 kts | 229° |